Terminal Aerodrome Forecast
Issued by NWS Cleveland, OH

Home | Current Version | Previous Version | Text Only | Print | Product List | Glossary Off
Versions: 1 2 3 4 5 6 7 8 9 10 11 12 13 14 15 16 17

000
FTUS41 KCLE 210811 AAA
TAFERI
TAF AMD
KERI 210811Z 2108/2206 VRB04KT P6SM OVC025
      TEMPO 2109/2113 4SM BR OVC015
     FM211300 30010KT P6SM SCT035
     FM220100 33012KT P6SM BKN035=

USA.gov is the U.S. government's official web portal to all federal, state and local government web resources and services.